Pahranagat National Wildlife Refuge, Nevada Weather observations

Data are for 10 minute period ending at time listed.
 Day   Time   Solar   Ave.   Ave.  Ave.  Vector  Max.   Baro.   Total    
  of    of     Rad.   Air    Rel.  Wind   Wind   Wind  Press.  Precip.   
Year   Day            Temp.  Hum.  Speed  Dir.   Gust                    
2016   (PST)  Kw/m2    F      %     mph   deg.    mph    mb.     in.     
-------------------------------------------------------------------------
 119   11:50   0.47   57.7    52    9.8   276    14.2   892.9    0.00 
 119   12:00   0.72   60.1    48    8.3   238    12.7   892.9    0.00 
 119   12:10   0.64   60.5    45    7.7   216    13.2   892.9    0.00 
 119   12:20   0.77   61.1    46    6.7   198    12.0   892.8    0.00 
 119   12:30   0.55   62.0    42    5.5   192     9.7   892.6    0.00 
 119   12:40   0.54   61.2    42    5.8   201     9.6   892.6    0.00 
 119   12:50   0.87   62.5    39    6.2   144    13.5   892.7    0.00 
 119   13:00   0.62   62.3    42   10.5   152    15.6   892.6    0.00 
 119   13:10   0.20   61.4    41   10.7   130    18.0   892.7    0.00 
 119   13:20   0.11   59.6    46   11.2   142    17.2   892.9    0.00 
 119   13:30   0.17   58.3    50   12.4   140    16.7   893.1    0.00 
 119   13:40   0.13   58.5    49    9.9   140    14.5   893.3    0.00 
 119   13:50   0.09   58.0    50    8.5   139    12.7   893.3    0.00 
 119   14:00   0.05   57.0    56    5.1   158     8.8   893.5    0.00 
 119   14:10   0.04   56.0    62    3.0   127    15.5   893.9    0.00 
 119   14:20   0.06   54.3    69    7.7    60    13.4   894.0    0.01 
 119   14:30   0.06   53.4    71    6.6    79     9.1   894.1    0.00 
 119   14:40   0.09   52.7    75    9.3   102    14.4   893.9    0.00 
 119   14:50   0.17   52.4    76   10.3   119    15.6   893.7    0.00 
 119   15:00   0.19   53.2    73    7.4   145    11.8   893.8    0.00 
 119   15:10   0.23   53.0    74    8.6   155    11.8   894.0    0.00 
 119   15:20   0.26   53.5    75    8.9   143    12.3   894.0    0.00 
 119   15:30   0.10   53.0    73    6.5   111    10.9   894.3    0.00 
 119   15:40   0.03   53.2    67    2.4    63     6.3   894.8    0.00 
 119   15:50   0.02   52.8    74    2.6   317     4.1   895.0    0.01 
 119   16:00   0.01   51.8    80    2.1   289     3.2   895.1    0.01 
 119   16:10   0.01   51.2    83    2.8   255     4.5   895.0    0.00 
 119   16:20   0.02   50.9    82    1.4   270     3.8   895.0    0.01 
 119   16:30   0.02   51.0    82    1.2   293     3.3   895.0    0.00 
 119   16:40   0.03   51.3    83    0.3    26     1.9   895.0    0.00 
 119   16:50   0.05   51.6    81    1.7    46     3.5   895.1    0.00 
 119   17:00   0.04   52.1    79    2.8    20     5.6   895.2    0.00 
 119   17:10   0.04   52.6    74    5.1    10    10.7   895.2    0.00 
 119   17:20   0.04   52.9    73    5.1     5     8.9   895.3    0.00 
 119   17:30   0.04   53.1    73    4.4    29     8.0   895.4    0.00 
 119   17:40   0.04   53.1    73    3.2    46     5.7   895.4    0.00 
 119   17:50   0.03   53.0    73    2.6    32     4.5   895.5    0.00 
 119   18:00   0.02   52.6    74    2.6    38     4.2   895.7    0.00 
 119   18:10   0.02   52.2    77    4.0    68     5.6   895.9    0.00 
 119   18:20   0.01   52.1    79    1.5    66     3.7   896.1    0.00 
 119   18:30   0.00   51.8    80    0.4    83     2.0   896.1    0.00 
 119   18:40   100.00  99999.0   99999  99999.0   99999   99999.0   99999.0   99999.00 
 119   18:50   0.00   52.7    75    1.3   212     3.4   896.2    0.00 
 119   19:00   0.00   51.8    80    1.7   197     2.8   896.3    0.00 
 119   19:10   0.00   51.2    81    2.7   228     4.7   896.4    0.00 
 119   19:20   0.00   50.0    85    3.7   257     5.2   896.4    0.00 
 119   19:30   0.00   50.4    84    3.6   252     5.2   896.4    0.00 
 119   19:40   0.00   50.7    82    1.4   257     3.4   896.5    0.00 
 119   19:50   0.00   50.8    82    4.0   102     6.6   896.8    0.00 
 119   20:00   0.00   51.2    80    2.6   100     4.4   897.0    0.00 
 119   20:10   0.00   51.6    78    2.1    85     5.3   897.1    0.00 
 119   20:20   0.00   51.3    78    0.6   195     2.7   897.1    0.00 
 119   20:30   0.00   49.6    82    2.5   288     3.1   897.4    0.00 
 119   20:40   0.00   48.9    86    1.1   305     3.1   897.5    0.00 
 119   20:50   0.00   48.6    87    1.4    97     2.6   897.6    0.00 
 119   21:00   0.00   48.7    87    0.6   232     1.8   897.7    0.00 
 119   21:10   0.00   48.5    88    1.2   276     2.5   897.7    0.00 
 119   21:20   0.00   48.1    87    2.4     3     2.9   897.7    0.00 
 119   21:30   0.00   48.5    89    1.6   116     2.7   897.8    0.00 
 119   21:40   0.00   48.8    89    2.7   155     5.2   897.9    0.00 
 119   21:50   0.00   48.8    89    2.1   153     5.4   898.0    0.00 
 119   22:00   0.00   48.9    88    3.1   144     4.2   898.0    0.00 
 119   22:10   0.00   48.8    88    2.2   126     3.4   898.0    0.00 
 119   22:20   0.00   48.8    88    1.3    84     2.5   898.1    0.00 
 119   22:30   0.00   48.8    88    1.7    37     2.9   898.1    0.00 
 119   22:40   0.00   47.9    88    1.8   302     3.1   898.1    0.00 
 119   22:50   0.00   47.1    89    1.1   342     1.8   898.0    0.00 
 119   23:00   0.00   46.4    89    2.4   330     2.9   898.2    0.00 
 119   23:10   0.00   45.4    90    2.0   305     4.5   898.2    0.00 
 119   23:20   0.00   44.6    91    2.4   330     3.7   898.3    0.00 
 119   23:30   0.00   45.1    93    1.7    42     3.3   898.2    0.00 
 119   23:40   0.00   45.6    92    0.4    46     1.8   898.2    0.00 
 119   23:50   0.00   44.7    92    1.4   312     2.6   898.2    0.00 
 120    0:00   0.00   42.6    92    1.6   322     2.3   898.0    0.00 
 120    0:10   0.00   44.1    94    1.5    53     2.3   898.1    0.00 
 120    0:20   0.00   44.4    93    0.3   130     2.0   897.9    0.00 
 120    0:30   0.00   43.1    92    1.8   291     3.2   897.9    0.00 
 120    0:40   0.00   41.3    93    2.7   290     3.4   897.9    0.00 
 120    0:50   0.00   40.8    94    3.1    11     3.9   897.8    0.00 
 120    1:00   0.00   42.1    94    1.6     1     3.7   897.9    0.00 
 120    1:10   0.00   40.8    94    0.9   295     2.9   897.9    0.00 
 120    1:20   0.00   41.5    95    1.9   110     2.4   897.9    0.00 
 120    1:30   0.00   42.4    94    1.3   294     3.6   897.9    0.00 
 120    1:40   0.00   41.1    94    3.4    12     4.2   898.0    0.00 
 120    1:50   0.00   40.0    94    1.7   296     2.9   898.1    0.00 
 120    2:00   0.00   39.4    95    1.2   311     2.9   898.1    0.00 
 120    2:10   0.00   39.6    95    1.9   320     2.9   898.0    0.00 
 120    2:20   0.00   38.7    95    2.0   274     3.4   898.1    0.00 
 120    2:30   0.00   38.0    95    2.8   332     4.8   898.2    0.00 
 120    2:40   0.00   39.4    96    2.0    28     4.7   898.3    0.00 
 120    2:50   0.00   39.6    95    1.9   284     3.4   898.5    0.00 
 120    3:00   0.00   39.2    95    1.1     4     2.5   898.4    0.00 
 120    3:10   0.00   39.2    95    2.9   294     4.2   898.5    0.00 
 120    3:20   0.00   37.8    95    1.6   319     4.0   898.3    0.00 
 120    3:30   0.00   37.3    95    0.7   289     1.5   898.3    0.00 
 120    3:40   0.00   38.3    96    2.3    34     3.9   898.3    0.00 
 120    3:50   0.00   39.2    96    2.1     6     4.0   898.1    0.00 
 120    4:00   0.00   37.3    95    3.0   311     4.7   898.2    0.00 
 120    4:10   0.00   36.7    96    2.4   346     4.2   898.2    0.00 
 120    4:20   0.00   37.5    96    1.1   276     2.6   898.3    0.00 
 120    4:30   0.00   39.0    96    2.6   302     4.0   898.4    0.00 
 120    4:40   0.00   37.9    95    2.2   311     3.7   898.3    0.00 
 120    4:50   0.00   38.8    96    3.2   278     4.3   898.5    0.00 
 120    5:00   0.01   38.8    96    2.3   328     4.7   898.6    0.00 
 120    5:10   0.01   38.3    95    3.3   345     4.6   898.6    0.00 
 120    5:20   0.05   40.4    96    2.3   315     3.9   898.7    0.00 
 120    5:30   0.07   40.3    95    2.7   291     3.4   899.0    0.00 
 120    5:40   0.09   41.2    95    2.9     8     4.5   899.1    0.00 
 120    5:50   0.11   43.2    95    3.1   344     4.7   899.2    0.00 
 120    6:00   0.13   43.7    94    3.1   276     5.8   899.3    0.00 
 120    6:10   0.14   45.5    94    2.4   303     3.5   899.5    0.00 
 120    6:20   0.17   47.3    91    2.7   299     5.0   899.8    0.00 
 120    6:30   0.19   48.2    86    3.2   313     5.4   900.0    0.00 
 120    6:40   0.21   48.6    83    4.8   318     8.3   900.3    0.00 
 120    6:50   0.23   49.2    79    6.6   338     9.0   900.4    0.00 
 120    7:00   0.28   50.1    76    5.3   331     9.0   900.5    0.00 
 120    7:10   0.39   52.1    70    3.3   337     6.4   900.6    0.00 
 120    7:20   0.26   53.7    61    3.5   345     5.7   900.6    0.00 
 120    7:30   0.13   53.3    62    3.5   325     6.3   900.7    0.00 
 120    7:40   0.20   53.1    64    3.5   321     5.8   900.8    0.00 
 120    7:50   0.38   54.0    60    4.9   295     7.0   900.8    0.00 
 120    8:00   0.46   55.1    57    4.6   310     6.7   900.7    0.00 
 120    8:10   0.47   55.7    58    3.1   304     5.5   900.6    0.00 
 120    8:20   0.49   56.3    57    4.3   345     7.9   900.5    0.00 
 120    8:30   0.52   57.5    56    3.3   338     6.2   900.4    0.00 
 120    8:40   0.53   57.9    55    3.4   332     8.0   900.5    0.00 
 120    8:50   0.56   58.7    53    3.1   349     7.4   900.5    0.00 
 120    9:00   0.60   59.3    50    3.5   332     7.2   900.4    0.00 
 120    9:10   0.59   61.0    47    3.2   300     6.9   900.3    0.00 
 120    9:20   0.55   61.5    43    2.0   266     7.4   900.2    0.00 
 120    9:30   0.65   62.2    44    5.1   300     9.1   900.1    0.00 
 120    9:40   0.67   62.4    41    4.4   293     9.5   900.1    0.00 
 120    9:50   0.69   62.9    40    3.7   282     8.3   900.0    0.00 
 120   10:00   0.71   63.9    38    3.0   312     6.3   899.8    0.00 
 120   10:10   0.51   63.9    37    1.9     7     6.5   899.6    0.00 
 120   10:20   0.27   62.8    37    4.0   215     9.4   899.5    0.00 
 120   10:30   0.28   63.1    35    2.8   217     6.4   899.5    0.00 
 120   10:40   0.29   63.5    35    2.6   208     6.4   899.5    0.00 
 120   10:50   0.58   65.0    34    1.4   231     4.2   899.4    0.00 
 120   11:00   0.29   64.3    33    2.9   241     5.8   899.3    0.00 
 120   11:10   0.23   64.0    31    3.1   287     6.8   899.1    0.00 
 120   11:20   0.22   63.7    34    6.4   234    13.6   899.0    0.00 
 120   11:30   0.23   61.9    39    8.0   221    13.0   899.1    0.00 
 120   11:40   0.69   62.3    42    6.9   210    11.1   899.0    0.00 

Return to Pahranagat N. Wildlife Refuge graphs page.


Western Regional Climate Center,wrcc@dri.edu